Time;durP1;ratioP1;P1;durP2;ratioP2;P2;SDS_P1;SDS_P2;PMS_P1;PMS_P2;Temp;Humidity;BMP_temperature;BMP_pressure;BME280_temperature;BME280_humidity;BME280_pressure;Samples;Min_cycle;Max_cycle;Signal;HPM_P1;HPM_P2
2022/02/24 00:00:58;;;;;;;12.07;2.75;;;8.60;99.90;;;9.81;68.58;100650.50;5078657;28;20035;-78
2022/02/24 00:03:26;;;;;;;8.73;2.42;;;8.60;99.90;;;9.75;68.51;100649.13;5077706;28;20475;-76
2022/02/24 00:05:56;;;;;;;6.22;2.15;;;8.50;99.90;;;9.60;69.46;100649.84;5076802;28;20021;-77
2022/02/24 00:08:22;;;;;;;8.32;2.10;;;8.50;99.90;;;9.76;68.63;100645.16;5078188;28;20016;-77
2022/02/24 00:10:48;;;;;;;5.97;2.50;;;8.50;99.90;;;9.64;69.12;100643.22;5077160;28;20078;-76
2022/02/24 00:13:15;;;;;;;8.45;2.38;;;8.50;99.90;;;9.68;68.66;100649.72;5077285;28;20136;-78
2022/02/24 00:15:43;;;;;;;9.30;2.60;;;8.50;99.90;;;9.60;69.41;100647.06;5078146;28;20036;-79
2022/02/24 00:18:12;;;;;;;5.22;1.77;;;8.40;99.90;;;9.64;69.44;100657.16;5060099;28;20029;-78
2022/02/24 00:20:38;;;;;;;5.65;2.30;;;8.40;99.90;;;9.64;69.53;100647.97;5077435;28;20159;-75
2022/02/24 00:23:07;;;;;;;6.80;2.30;;;8.40;99.90;;;9.59;69.89;100642.66;5077632;28;20113;-78
2022/02/24 00:25:32;;;;;;;9.23;2.35;;;8.40;99.90;;;9.63;69.54;100643.56;5059478;28;20036;-75
2022/02/24 00:28:01;;;;;;;8.93;2.28;;;8.40;99.90;;;9.59;69.60;100635.09;5077476;28;20036;-78
2022/02/24 00:30:27;;;;;;;9.50;2.72;;;8.40;99.90;;;9.59;69.92;100631.50;5077381;28;20028;-77
2022/02/24 00:32:53;;;;;;;7.88;2.58;;;8.30;99.90;;;9.49;70.24;100624.41;5059349;28;20124;-74
2022/02/24 00:35:18;;;;;;;10.38;2.65;;;8.30;99.90;;;9.39;70.62;100627.69;5059898;28;20036;-76
2022/02/24 00:37:44;;;;;;;6.78;2.80;;;8.20;99.90;;;9.40;70.46;100626.53;5078149;28;20032;-78
2022/02/24 00:40:13;;;;;;;9.57;2.78;;;8.20;99.90;;;9.31;70.75;100617.50;5076205;28;20025;-77
2022/02/24 00:42:39;;;;;;;11.18;2.45;;;8.20;99.90;;;9.35;71.15;100622.00;5076748;28;20483;-76
2022/02/24 00:45:06;;;;;;;9.20;2.72;;;8.20;99.90;;;9.44;70.63;100619.88;5077431;28;20033;-76
2022/02/24 00:47:35;;;;;;;10.38;3.10;;;8.20;99.90;;;9.34;70.86;100614.78;5076031;28;20029;-76
2022/02/24 00:50:07;;;;;;;6.97;2.60;;;8.20;99.90;;;9.29;71.20;100603.06;5071251;28;20021;-76
2022/02/24 00:52:33;;;;;;;7.75;2.53;;;8.20;99.90;;;9.28;71.21;100609.84;5058378;28;20025;-76
2022/02/24 00:54:59;;;;;;;8.95;1.92;;;8.20;99.90;;;9.30;71.08;100599.94;5060470;28;20404;-77
2022/02/24 00:57:28;;;;;;;5.93;2.13;;;8.20;99.90;;;9.40;70.70;100596.69;5060642;28;20063;-76
2022/02/24 00:59:54;;;;;;;6.97;2.30;;;8.20;99.90;;;9.34;70.63;100581.34;5042281;28;20029;-74
2022/02/24 01:02:19;;;;;;;11.55;2.40;;;8.20;99.90;;;9.43;71.04;100595.97;5042795;28;20079;-79
2022/02/24 01:04:47;;;;;;;10.35;2.10;;;8.20;99.90;;;9.45;70.63;100584.47;5060753;28;20075;-78
2022/02/24 01:07:13;;;;;;;12.13;3.10;;;8.20;99.90;;;9.33;70.48;100585.31;5061327;28;20400;-77
2022/02/24 01:09:42;;;;;;;10.15;2.67;;;8.20;99.90;;;9.34;70.50;100586.13;5062571;28;20024;-80
2022/02/24 01:12:08;;;;;;;6.95;2.20;;;8.20;99.90;;;9.40;70.06;100577.19;5044546;28;20029;-80
2022/02/24 01:14:37;;;;;;;9.27;2.20;;;8.20;99.90;;;9.34;69.91;100574.97;5043420;28;20079;-77
2022/02/24 01:17:04;;;;;;;8.23;2.28;;;8.20;99.90;;;9.34;70.12;100575.78;5043454;28;20447;-78
2022/02/24 01:19:30;;;;;;;11.68;2.75;;;8.20;99.90;;;9.31;70.26;100579.25;5061420;28;20029;-80
2022/02/24 01:21:56;;;;;;;6.78;2.20;;;8.20;99.90;;;9.27;70.41;100569.19;5042576;28;20035;-77
2022/02/24 01:24:25;;;;;;;7.18;2.30;;;8.20;99.90;;;9.25;70.30;100563.94;5059563;28;20029;-77
2022/02/24 01:26:54;;;;;;;9.65;2.75;;;8.20;99.90;;;9.33;69.96;100562.19;5059933;28;20029;-76
2022/02/24 01:29:23;;;;;;;9.70;2.58;;;8.20;99.90;;;9.25;70.12;100554.78;5041916;28;20500;-77
2022/02/24 01:31:48;;;;;;;11.45;3.15;;;8.20;99.90;;;9.40;70.01;100557.66;5061039;28;20068;-78
2022/02/24 01:34:18;;;;;;;10.75;2.88;;;8.20;99.90;;;9.34;70.19;100556.25;5042528;28;20029;-78
2022/02/24 01:36:54;;;;;;;8.70;2.83;;;8.20;99.90;;;9.37;70.41;100554.75;5060375;28;20033;-78
2022/02/24 01:39:23;;;;;;;6.85;2.40;;;8.20;99.90;;;9.23;70.70;100552.34;5060370;28;20032;-77
2022/02/24 01:41:50;;;;;;;7.22;2.15;;;8.20;99.90;;;9.31;70.43;100558.97;5060686;28;20036;-79
2022/02/24 01:44:16;;;;;;;9.63;2.60;;;8.20;99.90;;;9.25;70.69;100551.97;5064473;28;20040;-76
2022/02/24 01:46:52;;;;;;;7.55;2.38;;;8.20;99.90;;;9.30;70.67;100552.56;5064528;28;20024;-77
2022/02/24 01:49:22;;;;;;;7.93;2.83;;;8.20;99.90;;;9.27;70.47;100538.53;5064259;28;20391;-77
2022/02/24 01:51:48;;;;;;;8.43;2.60;;;8.10;99.90;;;9.27;70.52;100530.97;5080399;28;20028;-77
2022/02/24 01:54:21;;;;;;;9.13;2.55;;;8.20;99.90;;;9.28;70.56;100529.00;5079617;28;20039;-76
2022/02/24 01:56:47;;;;;;;8.10;2.05;;;8.20;99.90;;;9.38;69.67;100511.78;5080399;28;20051;-77
2022/02/24 01:59:19;;;;;;;7.20;2.35;;;8.30;99.90;;;9.41;70.00;100520.25;5062027;28;20036;-77
2022/02/24 02:01:45;;;;;;;8.20;2.08;;;8.20;99.90;;;9.41;69.91;100513.84;5080661;28;20101;-77
2022/02/24 02:04:11;;;;;;;11.23;2.75;;;8.20;99.90;;;9.43;69.60;100514.31;5063796;28;20464;-79
2022/02/24 02:06:39;;;;;;;8.77;2.20;;;8.20;99.90;;;9.45;69.68;100496.06;5063116;28;20032;-79
2022/02/24 02:09:10;;;;;;;16.85;2.78;;;8.20;99.90;;;9.41;70.00;100497.13;5081551;28;20029;-79
2022/02/24 02:11:37;;;;;;;7.28;2.78;;;8.30;99.90;;;9.54;69.58;100507.06;5080458;28;20028;-76
2022/02/24 02:14:04;;;;;;;9.45;2.35;;;8.20;99.90;;;9.39;70.12;100502.25;5081949;28;20037;-79
2022/02/24 02:16:32;;;;;;;9.07;2.50;;;8.20;99.90;;;9.33;70.11;100486.94;5081540;28;20061;-78
2022/02/24 02:18:58;;;;;;;9.73;2.30;;;8.20;99.90;;;9.38;70.08;100481.94;5079786;28;20111;-77
2022/02/24 02:21:24;;;;;;;8.20;2.28;;;8.20;99.90;;;9.49;69.41;100476.66;5079734;28;20035;-76
2022/02/24 02:23:50;;;;;;;8.35;2.78;;;8.30;99.90;;;9.37;69.63;100480.31;5079043;28;20032;-77
2022/02/24 02:26:22;;;;;;;7.28;2.15;;;8.30;99.90;;;9.48;69.72;100483.41;5078691;28;20029;-78
2022/02/24 02:28:47;;;;;;;8.18;2.75;;;8.30;99.90;;;9.43;69.80;100470.53;5078654;28;20027;-77
2022/02/24 02:31:21;;;;;;;16.50;3.00;;;8.30;99.90;;;9.40;69.71;100476.81;5078749;28;20028;-78
2022/02/24 02:33:47;;;;;;;7.95;2.40;;;8.30;99.90;;;9.36;70.37;100475.09;5078246;28;20032;-75
2022/02/24 02:36:13;;;;;;;9.23;3.05;;;8.30;99.90;;;9.32;70.58;100471.38;5078265;28;20031;-76
2022/02/24 02:38:38;;;;;;;12.10;2.35;;;8.20;99.90;;;9.29;70.87;100475.69;5059972;28;20017;-75
2022/02/24 02:41:10;;;;;;;8.98;1.88;;;8.20;99.90;;;9.42;70.26;100468.09;5078334;28;20052;-78
2022/02/24 02:43:36;;;;;;;10.15;2.08;;;8.20;99.90;;;9.41;70.18;100469.25;5078863;28;20025;-78
2022/02/24 02:46:04;;;;;;;6.85;2.10;;;8.20;99.90;;;9.38;70.37;100470.78;5060516;28;20135;-77
2022/02/24 02:48:29;;;;;;;9.65;1.92;;;8.20;99.90;;;9.35;70.84;100465.91;5060173;28;20049;-76
2022/02/24 02:50:55;;;;;;;8.55;2.47;;;8.20;99.90;;;9.31;70.80;100453.84;5077836;28;20081;-76
2022/02/24 02:53:21;;;;;;;8.30;2.58;;;8.20;99.90;;;9.30;70.79;100443.88;5078249;28;20032;-77
2022/02/24 02:55:47;;;;;;;7.38;2.33;;;8.20;99.90;;;9.22;71.20;100439.25;5078233;28;20031;-79
2022/02/24 02:58:13;;;;;;;6.85;2.35;;;8.20;99.90;;;9.22;71.18;100430.88;5077753;28;20130;-76
2022/02/24 03:00:41;;;;;;;11.35;2.88;;;8.20;99.90;;;9.32;71.35;100432.34;5078555;28;20028;-78
2022/02/24 03:03:07;;;;;;;8.80;2.47;;;8.20;99.90;;;9.36;71.19;100436.06;5059607;28;20035;-75
2022/02/24 03:05:33;;;;;;;10.88;2.47;;;8.20;99.90;;;9.36;71.64;100431.31;5081428;28;20384;-78
2022/02/24 03:07:59;;;;;;;6.50;2.30;;;8.20;99.90;;;9.39;71.30;100425.03;5087689;28;20107;-76
2022/02/24 03:10:25;;;;;;;8.30;2.17;;;8.20;99.90;;;9.37;71.07;100426.53;5078458;28;20440;-78
2022/02/24 03:12:51;;;;;;;8.77;2.55;;;8.20;99.90;;;9.39;71.51;100418.63;5077381;28;20043;-77
2022/02/24 03:15:20;;;;;;;6.60;2.10;;;8.20;99.90;;;9.27;71.72;100419.50;5058816;28;20028;-77
2022/02/24 03:17:47;;;;;;;9.45;2.42;;;8.20;99.90;;;9.36;71.10;100413.78;5077175;28;20036;-79
2022/02/24 03:20:14;;;;;;;8.40;1.85;;;8.20;99.90;;;9.41;71.04;100399.56;5075711;28;20426;-78
2022/02/24 03:22:40;;;;;;;9.43;2.30;;;8.20;99.90;;;9.28;71.83;100407.16;5075238;28;20548;-77
2022/02/24 03:25:07;;;;;;;11.27;2.40;;;8.20;99.90;;;9.26;72.06;100401.16;5077788;28;20028;-77
2022/02/24 03:27:33;;;;;;;9.02;2.35;;;8.20;99.90;;;9.25;71.89;100404.28;5076522;28;20032;-77
2022/02/24 03:30:05;;;;;;;8.90;2.78;;;8.10;99.90;;;9.35;71.64;100393.44;5076822;28;20028;-77
2022/02/24 03:32:31;;;;;;;6.13;1.98;;;8.10;99.90;;;9.36;71.48;100395.06;5076870;28;20047;-78
2022/02/24 03:35:03;;;;;;;6.72;2.65;;;8.10;99.90;;;9.29;72.07;100396.84;5076989;28;20108;-77
2022/02/24 03:37:29;;;;;;;11.48;2.42;;;8.10;99.90;;;9.35;71.92;100395.41;5077182;28;20029;-77
2022/02/24 03:39:54;;;;;;;8.25;2.33;;;8.10;99.90;;;9.31;71.86;100383.38;5059442;28;20051;-78
2022/02/24 03:42:20;;;;;;;10.82;2.55;;;8.10;99.90;;;9.22;71.86;100375.16;5076373;28;20039;-78
2022/02/24 03:44:46;;;;;;;8.30;2.22;;;8.10;99.90;;;9.31;72.44;100375.81;5076776;28;20036;-78
2022/02/24 03:47:12;;;;;;;7.78;2.35;;;8.10;99.90;;;9.16;72.47;100378.56;5077125;28;20025;-78
2022/02/24 03:49:38;;;;;;;9.15;2.13;;;8.10;99.90;;;9.24;72.31;100377.59;5070669;28;20457;-77
2022/02/24 03:52:04;;;;;;;11.23;2.75;;;8.10;99.90;;;9.31;72.33;100367.44;5056530;28;20456;-78
2022/02/24 03:54:30;;;;;;;7.35;2.33;;;8.10;99.90;;;9.24;72.75;100374.81;5055962;28;20384;-77
2022/02/24 03:56:55;;;;;;;5.75;2.00;;;8.10;99.90;;;9.26;72.78;100364.13;5039222;28;20083;-76
2022/02/24 03:59:24;;;;;;;5.85;2.00;;;8.10;99.90;;;9.29;72.64;100360.59;5057582;28;20029;-77
2022/02/24 04:01:50;;;;;;;8.43;2.00;;;8.00;99.90;;;9.25;72.85;100346.56;5058587;28;20123;-78
2022/02/24 04:04:16;;;;;;;8.45;1.98;;;8.10;99.90;;;9.25;72.74;100351.34;5058045;28;20029;-79
2022/02/24 04:06:42;;;;;;;7.50;2.08;;;8.00;99.90;;;9.22;73.09;100347.28;5058798;28;20029;-79
2022/02/24 04:09:08;;;;;;;6.93;2.13;;;8.00;99.90;;;9.23;73.09;100345.31;5058339;28;20165;-79
2022/02/24 04:11:34;;;;;;;16.30;3.25;;;8.00;99.90;;;9.21;73.19;100333.72;5041460;28;20512;-78
2022/02/24 04:14:12;;;;;;;6.90;2.33;;;8.00;99.90;;;9.17;73.48;100341.19;5039955;28;20060;-76
2022/02/24 04:16:38;;;;;;;13.15;2.50;;;8.00;99.90;;;9.18;73.12;100332.47;5039385;28;20055;-76
2022/02/24 04:19:04;;;;;;;8.07;2.35;;;8.00;99.90;;;9.17;73.61;100327.25;5055780;28;20484;-76
2022/02/24 04:21:30;;;;;;;9.45;3.20;;;8.00;99.90;;;9.18;73.26;100328.88;5056320;28;20033;-75
2022/02/24 04:23:56;;;;;;;10.02;2.60;;;8.00;99.90;;;9.19;73.66;100325.72;5060308;28;20029;-78
2022/02/24 04:26:22;;;;;;;14.48;2.70;;;8.00;99.90;;;9.23;73.79;100318.28;5061617;28;20035;-75
2022/02/24 04:28:50;;;;;;;7.95;2.30;;;8.00;99.90;;;9.23;73.39;100314.66;5044117;28;20059;-77
2022/02/24 04:31:16;;;;;;;12.52;2.55;;;8.00;99.90;;;9.23;73.81;100306.31;5060491;28;20116;-77
2022/02/24 04:33:42;;;;;;;10.95;2.92;;;8.00;99.90;;;9.17;73.79;100310.53;5061576;28;20098;-76
2022/02/24 04:36:08;;;;;;;8.25;2.50;;;8.00;99.90;;;9.17;73.64;100308.56;5060978;28;20045;-77
2022/02/24 04:38:35;;;;;;;8.27;2.20;;;8.00;99.90;;;9.19;73.64;100297.84;5061000;28;20037;-77
2022/02/24 04:41:04;;;;;;;9.43;2.05;;;8.10;99.90;;;9.25;73.24;100304.78;5059662;28;20029;-78
2022/02/24 04:43:30;;;;;;;8.73;2.28;;;8.00;99.90;;;9.26;73.80;100300.84;5060248;28;20112;-79
2022/02/24 04:45:55;;;;;;;6.97;2.15;;;8.00;99.90;;;9.32;73.77;100301.38;5059735;28;20447;-77
2022/02/24 04:48:23;;;;;;;7.90;2.20;;;8.00;99.90;;;9.27;73.96;100301.66;5059999;28;20045;-78
2022/02/24 04:50:49;;;;;;;7.93;1.98;;;8.00;99.90;;;9.17;74.38;100304.94;5074110;28;20480;-77
2022/02/24 04:53:16;;;;;;;6.05;2.13;;;8.00;99.90;;;9.20;74.60;100295.88;5079350;28;20032;-77
2022/02/24 04:55:43;;;;;;;7.13;2.88;;;8.00;99.90;;;9.18;74.38;100298.22;5077708;28;20100;-76
2022/02/24 04:58:09;;;;;;;9.55;2.17;;;8.00;99.90;;;9.09;74.43;100289.19;5061401;28;20032;-75
2022/02/24 05:00:36;;;;;;;11.13;2.45;;;8.00;99.90;;;9.13;74.50;100278.97;5079233;28;20075;-77
2022/02/24 05:03:01;;;;;;;13.77;3.08;;;8.00;99.90;;;9.08;74.95;100288.41;5078552;28;20025;-78
2022/02/24 05:05:30;;;;;;;5.13;1.98;;;8.00;99.90;;;9.11;74.54;100275.75;5077600;28;20029;-79
2022/02/24 05:07:59;;;;;;;10.18;2.92;;;8.00;99.90;;;9.08;74.61;100270.88;5078790;28;20108;-77
2022/02/24 05:10:31;;;;;;;6.65;2.60;;;8.00;99.90;;;9.16;74.33;100270.72;5077857;22;20036;-77
2022/02/24 05:13:00;;;;;;;8.95;2.53;;;8.00;99.90;;;9.13;74.63;100259.47;5037435;28;20021;-77
2022/02/24 05:15:29;;;;;;;10.02;2.20;;;8.00;99.90;;;9.20;74.22;100259.66;5054977;28;20025;-76
2022/02/24 05:17:58;;;;;;;8.18;2.35;;;8.00;99.90;;;9.12;74.70;100260.66;5055705;28;20103;-77
2022/02/24 05:20:23;;;;;;;9.50;2.00;;;8.00;99.90;;;9.16;74.32;100259.56;5054535;28;20115;-75
2022/02/24 05:22:49;;;;;;;5.40;2.63;;;8.00;99.90;;;9.16;74.24;100247.59;5055818;28;20095;-78
2022/02/24 05:25:16;;;;;;;8.88;2.45;;;8.00;99.90;;;9.25;74.30;100259.38;5055690;28;20037;-78
2022/02/24 05:27:44;;;;;;;8.85;2.20;;;8.00;99.90;;;9.29;74.20;100249.13;5037250;28;20116;-76
2022/02/24 05:30:15;;;;;;;10.63;3.00;;;8.00;99.90;;;9.15;74.79;100246.00;5055288;28;20070;-77
2022/02/24 05:32:42;;;;;;;8.48;2.33;;;8.00;99.90;;;9.14;74.67;100245.19;5056610;28;20021;-77
2022/02/24 05:35:09;;;;;;;10.10;2.35;;;8.00;99.90;;;9.09;74.99;100239.88;5036794;28;20064;-77
2022/02/24 05:37:35;;;;;;;7.22;2.55;;;7.90;99.90;;;9.11;75.18;100245.09;5037139;28;20032;-77
2022/02/24 05:40:06;;;;;;;8.60;2.30;;;7.90;99.90;;;9.05;75.14;100243.75;5037426;28;20033;-77
2022/02/24 05:42:35;;;;;;;7.93;2.47;;;7.90;99.90;;;9.07;75.18;100245.00;5055951;28;20033;-77
2022/02/24 05:45:01;;;;;;;8.32;2.28;;;7.90;99.90;;;9.02;75.25;100228.56;5038516;28;20025;-77
2022/02/24 05:47:27;;;;;;;12.75;3.00;;;7.90;99.90;;;8.99;74.86;100224.50;5056303;28;20121;-77
2022/02/24 05:49:53;;;;;;;8.43;3.38;;;7.90;99.90;;;8.97;74.96;100217.66;5063721;28;20436;-80
2022/02/24 05:52:35;;;;;;;9.00;1.90;;;7.90;99.90;;;9.02;75.17;100209.06;5075691;28;20483;-79
2022/02/24 05:55:02;;;;;;;9.57;2.45;;;7.90;99.90;;;9.06;74.59;100201.59;5083322;28;20024;-76
2022/02/24 05:57:30;;;;;;;8.73;2.45;;;7.90;99.90;;;9.04;74.93;100194.75;5076640;28;20033;-77
2022/02/24 05:59:56;;;;;;;6.10;2.30;;;7.90;99.90;;;9.02;74.67;100181.97;5075916;28;20028;-76
2022/02/24 06:02:22;;;;;;;9.73;2.17;;;7.90;99.90;;;9.14;74.68;100174.72;5088761;28;20099;-77
2022/02/24 06:04:47;;;;;;;6.40;1.98;;;7.90;99.90;;;9.02;75.03;100172.03;5066461;28;20068;-78
2022/02/24 06:07:13;;;;;;;10.98;2.70;;;7.90;99.90;;;8.97;74.89;100176.69;5083027;28;20476;-78
2022/02/24 06:09:42;;;;;;;9.27;3.45;;;7.90;99.90;;;9.06;74.94;100181.28;5056754;28;20048;-77
2022/02/24 06:12:11;;;;;;;8.70;2.30;;;8.00;99.90;;;9.08;74.30;100173.38;5057273;28;20025;-78
2022/02/24 06:14:37;;;;;;;10.90;2.60;;;8.00;99.90;;;9.13;74.38;100176.69;5075351;28;20028;-76
2022/02/24 06:17:03;;;;;;;9.48;2.03;;;8.00;99.90;;;9.11;74.79;100175.44;5074658;28;20103;-76
2022/02/24 06:19:30;;;;;;;9.18;2.75;;;8.00;99.90;;;9.13;75.00;100178.66;5074808;28;20032;-75
2022/02/24 06:21:59;;;;;;;12.23;2.33;;;8.00;99.90;;;9.07;75.33;100167.00;5076239;28;20028;-78
2022/02/24 06:24:28;;;;;;;8.35;2.22;;;8.00;99.90;;;9.25;74.63;100173.81;5075164;28;20093;-78
2022/02/24 06:26:57;;;;;;;5.10;2.38;;;8.00;99.90;;;9.20;74.44;100164.91;5056547;28;20029;-77
2022/02/24 06:29:23;;;;;;;8.70;2.42;;;8.00;99.90;;;9.08;75.61;100165.03;5055668;28;20459;-77
2022/02/24 06:31:48;;;;;;;4.82;2.20;;;8.00;99.90;;;9.19;75.05;100161.31;5073308;28;20028;-78
2022/02/24 06:34:15;;;;;;;8.05;2.70;;;8.10;99.90;;;9.21;74.60;100164.56;5073698;28;20036;-79
2022/02/24 06:36:47;;;;;;;8.45;2.33;;;8.10;99.90;;;9.20;74.81;100154.59;5055490;28;20028;-78
2022/02/24 06:39:13;;;;;;;10.38;2.47;;;8.00;99.90;;;9.21;74.87;100141.47;5055256;28;20094;-75
2022/02/24 06:41:39;;;;;;;5.47;2.10;;;8.10;99.90;;;9.18;74.91;100153.34;5073221;28;20484;-77
2022/02/24 06:44:09;;;;;;;9.02;2.03;;;8.10;99.90;;;9.21;74.52;100147.03;5055654;28;20028;-78
2022/02/24 06:46:35;;;;;;;10.70;2.83;;;8.10;99.90;;;9.27;73.84;100146.41;5073727;28;20021;-77
2022/02/24 06:49:01;;;;;;;11.23;2.30;;;8.20;99.90;;;9.19;73.96;100141.00;5072162;28;20332;-78
2022/02/24 06:51:27;;;;;;;9.18;2.22;;;8.20;99.90;;;9.23;73.70;100136.34;5053743;28;20032;-82
2022/02/24 06:53:53;;;;;;;9.10;2.28;;;8.20;99.90;;;9.35;73.54;100142.59;5053531;28;20503;-80
2022/02/24 06:56:19;;;;;;;3.95;1.63;;;8.20;99.90;;;9.29;74.04;100137.66;5053874;28;20181;-78
2022/02/24 06:58:48;;;;;;;6.75;1.90;;;8.20;99.90;;;9.36;73.68;100147.00;5037255;28;20115;-79
2022/02/24 07:01:14;;;;;;;11.75;2.63;;;8.30;99.90;;;9.37;73.41;100139.47;5057356;28;20036;-78
2022/02/24 07:03:40;;;;;;;9.45;2.83;;;8.30;99.90;;;9.36;73.84;100137.84;5037656;28;20033;-77
2022/02/24 07:06:10;;;;;;;7.20;2.38;;;8.30;99.90;;;9.41;73.02;100134.75;5056018;28;20179;-77
2022/02/24 07:08:37;;;;;;;6.25;1.95;;;8.40;99.90;;;9.50;72.56;100127.03;5054693;28;20268;-76
2022/02/24 07:11:03;;;;;;;7.45;1.90;;;8.40;99.90;;;9.36;72.44;100126.69;5054913;28;20025;-77
2022/02/24 07:13:29;;;;;;;11.85;2.70;;;8.30;99.90;;;9.36;72.92;100130.28;5054529;28;20384;-77
2022/02/24 07:15:55;;;;;;;7.78;1.75;;;8.40;99.90;;;9.39;73.38;100129.56;5055912;28;20159;-77
2022/02/24 07:18:21;;;;;;;10.00;2.42;;;8.40;99.90;;;9.60;71.65;100126.44;5037557;28;20043;-78
2022/02/24 07:20:47;;;;;;;7.07;1.70;;;8.50;99.90;;;9.53;71.43;100121.50;5056892;28;20040;-77
2022/02/24 07:23:13;;;;;;;13.57;3.17;;;8.50;99.90;;;9.66;71.39;100116.66;5054390;28;20036;-78
2022/02/24 07:25:40;;;;;;;4.55;1.60;;;8.50;99.90;;;9.67;71.59;100126.59;5056327;28;20036;-79
2022/02/24 07:28:09;;;;;;;9.02;2.45;;;8.50;99.90;;;9.76;71.89;100120.84;5056668;28;20020;-78
2022/02/24 07:30:38;;;;;;;5.13;2.00;;;8.60;99.90;;;9.53;71.77;100106.78;5056834;28;20108;-78
2022/02/24 07:33:04;;;;;;;5.85;1.90;;;8.60;99.90;;;9.71;71.13;100118.31;5055324;28;20154;-80
2022/02/24 07:35:33;;;;;;;8.25;1.92;;;8.60;99.90;;;9.70;70.96;100117.50;5056510;28;20132;-80
2022/02/24 07:37:59;;;;;;;5.90;1.90;;;8.60;99.90;;;9.78;70.73;100104.53;5038658;28;20104;-80
2022/02/24 07:40:28;;;;;;;11.73;2.63;;;8.70;99.90;;;9.81;70.90;100090.66;5057151;28;20048;-80
2022/02/24 07:42:54;;;;;;;7.18;1.70;;;8.70;99.90;;;9.80;70.28;100094.63;5056223;28;20036;-79
2022/02/24 07:45:20;;;;;;;8.07;1.73;;;8.70;99.90;;;9.99;69.85;100102.19;5054832;28;20032;-77
2022/02/24 07:47:48;;;;;;;5.53;1.58;;;8.70;99.90;;;9.98;70.37;100095.81;5054196;28;20021;-80
2022/02/24 07:50:17;;;;;;;7.85;1.90;;;8.80;99.90;;;9.95;70.83;100093.75;5063476;28;20063;-77
2022/02/24 07:52:47;;;;;;;10.93;1.63;;;8.80;99.90;;;9.82;70.35;100092.28;5074739;28;20025;-77
2022/02/24 07:55:16;;;;;;;8.10;2.35;;;8.80;99.90;;;9.87;70.12;100088.38;5080182;28;20115;-77
2022/02/24 07:57:43;;;;;;;9.45;1.73;;;8.80;99.90;;;9.87;70.66;100089.22;5078273;28;20119;-78
2022/02/24 08:00:15;;;;;;;6.95;2.00;;;8.80;99.90;;;9.92;70.31;100085.31;5079439;28;20032;-80
2022/02/24 08:02:43;;;;;;;5.75;1.67;;;8.90;99.90;;;10.16;69.90;100092.59;5079306;28;20032;-77
2022/02/24 08:05:12;;;;;;;4.60;1.67;;;8.90;99.90;;;10.06;70.06;100083.63;5058187;28;20094;-80
2022/02/24 08:07:39;;;;;;;6.13;1.52;;;8.90;99.90;;;10.06;69.47;100080.00;5079949;28;20028;-79
2022/02/24 08:10:07;;;;;;;6.80;1.60;;;8.90;99.90;;;9.99;68.60;100074.28;5079568;28;20044;-78
2022/02/24 08:12:42;;;;;;;6.25;1.88;;;8.90;99.90;;;10.08;69.32;100084.03;5079744;28;20032;-78
2022/02/24 08:15:19;;;;;;;7.47;1.67;;;9.00;99.90;;;10.08;68.87;100072.88;5077669;28;20334;-79
2022/02/24 08:17:46;;;;;;;4.95;1.63;;;9.00;99.90;;;10.11;69.00;100078.91;5060069;28;20457;-78
2022/02/24 08:20:16;;;;;;;7.57;1.60;;;9.00;99.90;;;10.10;69.07;100077.28;5077182;28;20028;-77
2022/02/24 08:22:54;;;;;;;7.90;1.85;;;9.00;99.90;;;10.06;68.59;100068.84;5078031;28;20029;-77
2022/02/24 08:25:21;;;;;;;6.03;1.58;;;9.00;99.90;;;10.08;68.34;100072.88;5078140;28;20028;-78
2022/02/24 08:27:48;;;;;;;4.45;1.60;;;9.00;99.90;;;10.22;68.06;100072.38;5077720;28;20065;-78
2022/02/24 08:30:21;;;;;;;7.57;1.85;;;9.00;99.90;;;10.14;68.99;100062.28;5079129;28;20035;-79
2022/02/24 08:32:50;;;;;;;5.53;1.63;;;9.10;99.90;;;10.19;69.21;100066.75;5080592;28;20052;-78
2022/02/24 08:35:18;;;;;;;4.55;1.70;;;9.10;99.90;;;10.24;68.81;100066.47;5066869;28;20033;-79
2022/02/24 08:37:47;;;;;;;3.75;2.00;;;9.10;99.90;;;10.27;69.32;100060.13;5067429;28;20040;-78
2022/02/24 08:40:19;;;;;;;9.98;1.70;;;9.20;99.90;;;10.20;69.57;100051.63;5085783;28;20458;-77
2022/02/24 08:42:50;;;;;;;10.10;1.88;;;9.20;99.90;;;10.18;69.57;100046.38;5086782;28;20056;-77
2022/02/24 08:45:19;;;;;;;5.43;1.75;;;9.20;99.90;;;10.33;69.17;100036.31;5086046;28;20041;-79
2022/02/24 08:47:45;;;;;;;9.00;2.03;;;9.20;99.90;;;10.27;69.32;100046.19;5084561;28;20039;-79
2022/02/24 08:50:13;;;;;;;6.85;1.95;;;9.20;99.90;;;10.36;69.21;100043.94;5074652;28;20044;-79
2022/02/24 08:52:39;;;;;;;5.95;1.77;;;9.30;99.90;;;10.33;69.17;100044.69;5063648;28;20029;-78
2022/02/24 08:55:06;;;;;;;8.98;1.50;;;9.30;99.90;;;10.40;67.85;100030.88;5060884;28;20067;-79
2022/02/24 08:57:32;;;;;;;7.10;2.05;;;9.30;99.90;;;10.29;68.41;100033.47;5064372;28;20094;-77
2022/02/24 09:00:05;;;;;;;9.15;2.30;;;9.30;99.90;;;10.37;68.94;100026.03;5060800;28;20048;-78
2022/02/24 09:02:31;;;;;;;7.63;2.47;;;9.30;99.90;;;10.47;69.31;100019.81;5059123;28;20037;-79
2022/02/24 09:05:00;;;;;;;5.68;2.33;;;9.30;99.90;;;10.54;67.49;100019.94;5058890;28;20416;-77
2022/02/24 09:07:28;;;;;;;5.82;1.85;;;9.40;99.90;;;10.46;67.80;100015.41;5058418;28;20108;-78
2022/02/24 09:09:55;;;;;;;6.97;2.05;;;9.40;99.90;;;10.62;67.90;100012.50;5056746;28;20040;-78
2022/02/24 09:12:20;;;;;;;10.98;2.55;;;9.40;99.90;;;10.62;67.16;100018.88;5057958;28;20021;-79
2022/02/24 09:14:52;;;;;;;5.05;1.90;;;9.40;99.90;;;10.39;67.72;100004.94;5059331;28;20554;-77
2022/02/24 09:17:19;;;;;;;4.32;1.35;;;9.40;99.90;;;10.31;68.09;100005.16;5057590;28;20522;-78
2022/02/24 09:19:45;;;;;;;5.53;2.08;;;9.30;99.90;;;10.19;69.29;99994.19;5057651;28;20037;-78
2022/02/24 09:22:13;;;;;;;6.18;1.73;;;9.30;99.90;;;10.27;69.72;99990.34;5058122;28;20029;-77
2022/02/24 09:24:40;;;;;;;6.40;1.48;;;9.30;99.90;;;10.32;69.54;99988.06;5056110;28;20067;-80
2022/02/24 09:27:11;;;;;;;7.07;2.00;;;9.30;99.90;;;10.18;69.91;99985.00;5056298;28;20029;-77
2022/02/24 09:29:43;;;;;;;8.48;2.03;;;9.20;99.90;;;10.00;70.65;99972.69;5056131;28;20021;-78
2022/02/24 09:32:09;;;;;;;10.40;2.10;;;9.20;99.90;;;10.19;70.95;99974.66;5037587;28;20031;-79
2022/02/24 09:34:35;;;;;;;6.47;1.70;;;9.20;99.90;;;10.37;70.88;99978.56;5055959;28;20037;-78
2022/02/24 09:37:05;;;;;;;6.80;1.63;;;9.20;99.90;;;10.39;70.31;99970.63;5056012;28;20083;-78
2022/02/24 09:39:33;;;;;;;9.27;2.10;;;9.30;99.90;;;10.38;70.12;99971.78;5038794;28;20484;-78
2022/02/24 09:41:59;;;;;;;6.95;1.40;;;9.40;99.90;;;10.35;69.88;99962.19;5056441;28;20025;-77
2022/02/24 09:44:35;;;;;;;5.13;1.80;;;9.30;99.90;;;10.06;71.12;99963.66;5055890;28;20060;-78
2022/02/24 09:47:03;;;;;;;4.70;1.65;;;9.30;99.90;;;10.24;71.17;99949.25;5055197;28;20025;-77
2022/02/24 09:49:33;;;;;;;7.47;1.70;;;9.40;99.90;;;10.44;71.06;99943.19;5059823;28;20074;-76
2022/02/24 09:52:03;;;;;;;7.05;1.70;;;9.40;99.90;;;10.45;69.92;99938.41;5057374;28;20025;-77
2022/02/24 09:54:32;;;;;;;6.60;1.77;;;9.50;99.90;;;10.37;70.60;99947.88;5076781;28;20028;-78
2022/02/24 09:57:01;;;;;;;6.40;1.48;;;9.50;99.90;;;10.44;71.05;99942.38;5059792;28;20047;-80
2022/02/24 09:59:27;;;;;;;8.27;2.00;;;9.50;99.90;;;10.47;71.21;99947.22;5075324;28;20024;-76
2022/02/24 10:01:55;;;;;;;8.27;1.50;;;9.50;99.90;;;10.61;71.38;99941.06;5075150;28;20035;-77
2022/02/24 10:04:23;;;;;;;12.32;1.80;;;9.60;99.90;;;10.60;71.78;99937.44;5073456;28;20055;-77
2022/02/24 10:06:52;;;;;;;9.40;1.98;;;9.60;99.90;;;10.43;72.63;99936.00;5075430;28;20025;-77
2022/02/24 10:09:32;;;;;;;5.68;1.80;;;9.50;99.90;;;10.36;73.31;99919.16;5075040;28;20037;-77
2022/02/24 10:12:11;;;;;;;7.47;1.55;;;9.40;99.90;;;10.37;75.05;99915.16;5089800;28;20035;-78
2022/02/24 10:14:38;;;;;;;7.60;1.52;;;9.30;99.90;;;10.11;76.34;99912.31;5096276;28;20120;-77
2022/02/24 10:17:07;;;;;;;7.25;1.90;;;9.20;99.90;;;10.16;76.46;99892.50;5089499;28;20024;-78
2022/02/24 10:19:46;;;;;;;7.53;2.00;;;9.20;99.90;;;10.12;76.61;99888.00;5056779;28;20040;-77
2022/02/24 10:22:26;;;;;;;8.80;2.38;;;9.20;99.90;;;10.36;75.86;99879.25;5075426;28;20025;-78
2022/02/24 10:25:08;;;;;;;9.00;2.63;;;9.30;99.90;;;10.23;77.27;99867.50;5074182;28;20039;-78